createdAt,value
2018-07-28T00:02:15.537Z,26.80
2018-07-28T00:04:43.768Z,26.70
2018-07-28T00:07:11.984Z,26.60
2018-07-28T00:09:40.216Z,26.60
2018-07-28T00:12:08.494Z,26.60
2018-07-28T00:14:36.602Z,26.60
2018-07-28T00:17:04.989Z,26.50
2018-07-28T00:19:33.108Z,26.50
2018-07-28T00:22:01.273Z,26.50
2018-07-28T00:24:29.403Z,26.40
2018-07-28T00:26:57.584Z,26.40
2018-07-28T00:29:25.862Z,26.40
2018-07-28T00:31:53.980Z,26.40
2018-07-28T00:34:22.106Z,26.40
2018-07-28T00:36:50.256Z,26.40
2018-07-28T00:39:18.492Z,26.30
2018-07-28T00:41:46.660Z,26.30
2018-07-28T00:44:14.809Z,26.20
2018-07-28T00:46:42.944Z,26.20
2018-07-28T00:49:11.048Z,26.10
2018-07-28T00:51:39.167Z,26.00
2018-07-28T00:54:07.478Z,26.00
2018-07-28T00:56:35.566Z,25.90
2018-07-28T00:59:03.745Z,25.90
2018-07-28T01:01:31.882Z,25.80
2018-07-28T01:04:00.033Z,25.80
2018-07-28T01:06:28.170Z,25.70
2018-07-28T01:08:56.539Z,25.60
2018-07-28T01:11:24.644Z,25.50
2018-07-28T01:16:20.815Z,25.40
2018-07-28T01:18:48.940Z,25.40
2018-07-28T01:21:17.066Z,25.40
2018-07-28T01:23:45.252Z,25.40
2018-07-28T01:26:13.514Z,25.40
2018-07-28T01:28:41.665Z,25.30
2018-07-28T01:31:10.182Z,25.30
2018-07-28T01:33:38.350Z,25.10
2018-07-28T01:36:06.529Z,25.10
2018-07-28T01:38:34.633Z,25.10
2018-07-28T01:41:02.822Z,25.10
2018-07-28T01:43:30.988Z,25.10
2018-07-28T01:45:59.191Z,25.10
2018-07-28T01:48:27.510Z,25.10
2018-07-28T01:50:55.685Z,25.00
2018-07-28T01:53:23.829Z,24.90
2018-07-28T01:55:52.037Z,24.80
2018-07-28T01:58:20.173Z,24.70
2018-07-28T02:00:48.305Z,24.60
2018-07-28T02:03:16.559Z,24.50
2018-07-28T02:05:44.782Z,24.50
2018-07-28T02:08:12.929Z,24.50
2018-07-28T02:10:41.158Z,24.50
2018-07-28T02:13:09.407Z,24.60
2018-07-28T02:15:37.600Z,24.60
2018-07-28T02:18:05.914Z,24.50
2018-07-28T02:20:34.131Z,24.50
2018-07-28T02:23:02.326Z,24.40
2018-07-28T02:25:30.446Z,24.30
2018-07-28T02:30:26.536Z,24.30
2018-07-28T02:32:54.709Z,24.30
2018-07-28T02:35:22.808Z,24.30
2018-07-28T02:37:50.944Z,24.30
2018-07-28T02:40:19.068Z,24.30
2018-07-28T02:42:47.240Z,24.30
2018-07-28T02:47:43.701Z,24.30
2018-07-28T02:50:12.153Z,24.30
2018-07-28T02:52:40.482Z,24.30
2018-07-28T02:55:09.438Z,24.20
2018-07-28T02:57:37.796Z,24.20
2018-07-28T03:00:06.925Z,24.20
2018-07-28T03:02:35.194Z,24.10
2018-07-28T03:07:31.321Z,24.10
2018-07-28T03:09:59.469Z,24.00
2018-07-28T03:12:27.589Z,24.00
2018-07-28T03:14:55.717Z,23.90
2018-07-28T03:17:23.913Z,23.40
2018-07-28T03:19:52.092Z,23.10
2018-07-28T03:22:20.277Z,22.80
2018-07-28T03:24:48.397Z,22.60
2018-07-28T03:27:16.549Z,22.40
2018-07-28T03:29:44.815Z,22.40
2018-07-28T03:32:13.021Z,22.40
2018-07-28T03:34:41.133Z,22.40
2018-07-28T03:37:09.345Z,22.50
2018-07-28T03:39:37.485Z,22.50
2018-07-28T03:42:05.698Z,22.60
2018-07-28T03:44:33.884Z,22.70
2018-07-28T03:47:02.009Z,22.80
2018-07-28T03:49:30.133Z,22.90
2018-07-28T03:51:58.594Z,23.00
2018-07-28T03:54:26.704Z,23.00
2018-07-28T03:56:54.910Z,23.10
2018-07-28T03:59:23.061Z,23.10
2018-07-28T04:01:51.343Z,23.20
2018-07-28T04:06:47.372Z,23.20
2018-07-28T04:09:15.545Z,23.20
2018-07-28T04:14:11.645Z,23.20
2018-07-28T04:16:39.887Z,23.20
2018-07-28T04:19:08.055Z,23.20
2018-07-28T04:21:35.561Z,23.20
2018-07-28T04:24:03.767Z,23.20
2018-07-28T04:26:31.304Z,23.20
2018-07-28T04:29:00.042Z,23.20
2018-07-28T04:31:28.185Z,23.20
2018-07-28T04:33:56.314Z,23.30
2018-07-28T04:36:23.748Z,23.30
2018-07-28T04:38:51.324Z,23.30
2018-07-28T04:41:18.788Z,23.40
2018-07-28T04:43:46.236Z,23.40
2018-07-28T04:46:13.684Z,23.40
2018-07-28T04:48:41.169Z,23.40
2018-07-28T04:51:08.625Z,23.50
2018-07-28T04:53:36.949Z,23.50
2018-07-28T04:56:04.465Z,23.50
2018-07-28T04:58:31.920Z,23.50
2018-07-28T05:01:00.077Z,23.50
2018-07-28T05:03:28.240Z,23.60
2018-07-28T05:05:56.497Z,23.60
2018-07-28T05:08:24.660Z,23.60
2018-07-28T05:10:52.781Z,23.60
2018-07-28T05:13:20.220Z,23.50
2018-07-28T05:15:47.689Z,23.50
2018-07-28T05:18:15.125Z,23.50
2018-07-28T05:20:42.705Z,23.50
2018-07-28T05:23:10.169Z,23.50
2018-07-28T05:25:37.610Z,23.50
2018-07-28T05:28:05.280Z,23.50
2018-07-28T05:30:32.949Z,23.60
2018-07-28T05:33:01.073Z,23.70
2018-07-28T05:35:28.541Z,23.70
2018-07-28T05:37:56.118Z,23.60
2018-07-28T05:40:23.907Z,23.60
2018-07-28T05:42:51.337Z,23.50
2018-07-28T05:45:18.812Z,23.50
2018-07-28T05:47:46.244Z,23.40
2018-07-28T05:50:13.741Z,23.50
2018-07-28T05:52:41.101Z,23.60
2018-07-28T05:55:08.592Z,23.60
2018-07-28T05:57:38.341Z,23.50
2018-07-28T06:00:06.027Z,23.50
2018-07-28T06:02:33.531Z,23.50
2018-07-28T06:05:00.929Z,23.60
2018-07-28T06:07:28.697Z,23.60
2018-07-28T06:09:56.144Z,23.50
2018-07-28T06:12:23.576Z,23.60
2018-07-28T06:14:51.749Z,23.60
2018-07-28T06:17:19.229Z,23.50
2018-07-28T06:19:46.697Z,23.40
2018-07-28T06:24:41.421Z,23.30
2018-07-28T06:27:08.915Z,23.30
2018-07-28T06:29:36.462Z,23.30
2018-07-28T06:32:05.275Z,23.30
2018-07-28T06:34:32.673Z,23.40
2018-07-28T06:39:30.981Z,23.50
2018-07-28T06:41:59.033Z,23.60
2018-07-28T06:44:27.162Z,23.80
2018-07-28T06:46:55.281Z,24.00
2018-07-28T06:49:23.437Z,24.10
2018-07-28T06:51:51.797Z,24.30
2018-07-28T06:54:20.072Z,24.50
2018-07-28T06:56:48.176Z,24.60
2018-07-28T06:59:16.306Z,24.80
2018-07-28T07:01:44.425Z,24.90
2018-07-28T07:04:13.136Z,25.00
2018-07-28T07:06:41.437Z,25.20
2018-07-28T07:09:11.161Z,25.20
2018-07-28T07:11:39.396Z,25.40
2018-07-28T07:14:07.613Z,25.40
2018-07-28T07:16:36.005Z,25.50
2018-07-28T07:19:04.145Z,25.60
2018-07-28T07:21:32.259Z,25.70
2018-07-28T07:24:00.421Z,25.70
2018-07-28T07:26:27.868Z,25.80
2018-07-28T07:28:55.324Z,25.90
2018-07-28T07:31:23.549Z,25.90
2018-07-28T07:36:18.656Z,26.00
2018-07-28T07:38:46.001Z,26.10
2018-07-28T07:41:13.445Z,26.10
2018-07-28T07:43:42.217Z,26.10
2018-07-28T07:46:09.704Z,26.20
2018-07-28T07:48:37.663Z,26.20
2018-07-28T07:51:05.123Z,26.20
2018-07-28T07:53:32.584Z,26.30
2018-07-28T07:56:00.050Z,26.30
2018-07-28T07:58:27.632Z,26.30
2018-07-28T08:00:55.080Z,26.30
2018-07-28T08:03:22.505Z,26.40
2018-07-28T08:05:50.642Z,26.30
2018-07-28T08:08:18.088Z,26.40
2018-07-28T08:10:46.282Z,26.40
2018-07-28T08:13:13.737Z,26.40
2018-07-28T08:15:41.963Z,26.40
2018-07-28T08:18:10.102Z,26.50
2018-07-28T08:20:37.565Z,26.50
2018-07-28T08:28:00.055Z,26.30
2018-07-28T08:30:28.195Z,26.20
2018-07-28T08:32:55.700Z,26.20
2018-07-28T08:35:23.145Z,26.00
2018-07-28T08:37:50.617Z,26.10
2018-07-28T08:40:18.085Z,26.10
2018-07-28T08:42:46.358Z,26.30
2018-07-28T08:45:14.756Z,26.30
2018-07-28T08:47:43.029Z,26.40
2018-07-28T08:50:10.517Z,26.40
2018-07-28T08:55:05.470Z,26.40
2018-07-28T08:57:32.920Z,26.40
2018-07-28T09:00:00.404Z,26.30
2018-07-28T09:02:28.505Z,26.40
2018-07-28T09:04:55.976Z,26.40
2018-07-28T09:07:23.427Z,26.40
2018-07-28T09:09:50.901Z,26.50
2018-07-28T09:12:18.409Z,26.60
2018-07-28T09:14:46.009Z,26.60
2018-07-28T09:17:13.428Z,26.60
2018-07-28T09:19:40.856Z,26.70
2018-07-28T09:22:08.348Z,26.80
2018-07-28T09:24:35.775Z,26.80
2018-07-28T09:27:03.221Z,26.90
2018-07-28T09:29:30.761Z,26.90
2018-07-28T09:31:58.216Z,27.00
2018-07-28T09:34:25.632Z,27.20
2018-07-28T09:36:53.142Z,27.30
2018-07-28T09:39:20.553Z,27.40
2018-07-28T09:41:48.072Z,27.50
2018-07-28T09:44:15.802Z,27.60
2018-07-28T09:46:43.230Z,27.60
2018-07-28T09:51:38.160Z,27.70
2018-07-28T09:54:05.678Z,27.90
2018-07-28T09:56:33.136Z,28.10
2018-07-28T09:59:00.706Z,28.20
2018-07-28T10:01:28.276Z,28.30
2018-07-28T10:03:56.393Z,28.30
2018-07-28T10:06:24.497Z,28.40
2018-07-28T10:08:51.938Z,28.30
2018-07-28T10:11:19.386Z,28.30
2018-07-28T10:13:46.860Z,28.20
2018-07-28T10:16:14.312Z,28.20
2018-07-28T10:18:41.764Z,28.20
2018-07-28T10:21:10.621Z,28.20
2018-07-28T10:23:38.109Z,28.30
2018-07-28T10:26:05.834Z,28.40
2018-07-28T10:28:33.462Z,28.50
2018-07-28T10:31:00.889Z,28.50
2018-07-28T10:33:29.069Z,28.60
2018-07-28T10:35:56.520Z,28.70
2018-07-28T10:38:23.959Z,28.80
2018-07-28T10:40:51.549Z,28.80
2018-07-28T10:43:19.058Z,29.00
2018-07-28T10:45:46.896Z,29.10
2018-07-28T10:48:15.502Z,29.20
2018-07-28T10:50:44.027Z,29.20
2018-07-28T10:53:11.457Z,29.30
2018-07-28T10:55:39.604Z,29.40
2018-07-28T10:58:07.045Z,29.40
2018-07-28T11:00:35.184Z,29.40
2018-07-28T11:03:03.325Z,29.40
2018-07-28T11:05:30.771Z,29.50
2018-07-28T11:07:59.277Z,29.60
2018-07-28T11:10:26.709Z,29.70
2018-07-28T11:12:54.133Z,29.80
2018-07-28T11:15:21.560Z,29.90
2018-07-28T11:17:49.660Z,30.00
2018-07-28T11:20:17.072Z,30.10
2018-07-28T11:22:44.521Z,30.20
2018-07-28T11:25:12.651Z,30.30
2018-07-28T11:27:40.081Z,30.40
2018-07-28T11:30:08.158Z,30.50
2018-07-28T11:32:41.364Z,30.40
2018-07-28T11:35:14.486Z,30.40
2018-07-28T11:37:48.552Z,30.30
2018-07-28T11:40:21.637Z,30.50
2018-07-28T11:42:54.686Z,30.60
2018-07-28T11:45:22.810Z,30.70
2018-07-28T11:47:50.925Z,30.70
2018-07-28T11:50:19.018Z,30.70
2018-07-28T11:52:47.137Z,30.70
2018-07-28T11:55:15.240Z,30.80
2018-07-28T11:57:43.345Z,30.90
2018-07-28T12:00:11.461Z,31.00
2018-07-28T12:02:40.077Z,31.00
2018-07-28T12:05:08.441Z,31.10
2018-07-28T12:07:36.557Z,31.10
2018-07-28T12:10:06.509Z,31.20
2018-07-28T12:12:34.663Z,31.20
2018-07-28T12:15:02.762Z,31.00
2018-07-28T12:17:30.865Z,30.90
2018-07-28T12:19:58.987Z,30.90
2018-07-28T12:22:27.185Z,30.90
2018-07-28T12:24:55.294Z,30.90
2018-07-28T12:29:51.293Z,30.90
2018-07-28T12:32:19.442Z,31.00
2018-07-28T12:34:47.634Z,31.00
2018-07-28T12:37:15.681Z,31.10
2018-07-28T12:39:43.782Z,31.00
2018-07-28T12:42:12.133Z,31.00
2018-07-28T12:44:42.586Z,30.90
2018-07-28T12:47:10.805Z,31.00
2018-07-28T12:49:38.930Z,31.40
2018-07-28T12:52:08.974Z,31.80
2018-07-28T12:54:37.422Z,32.60
2018-07-28T12:57:05.545Z,33.60
2018-07-28T13:02:01.679Z,34.40
2018-07-28T13:04:29.791Z,33.90
2018-07-28T13:06:57.329Z,33.60
2018-07-28T13:09:24.744Z,33.70
2018-07-28T13:11:52.185Z,33.90
2018-07-28T13:14:20.574Z,34.40
2018-07-28T13:16:48.046Z,34.90
2018-07-28T13:19:15.526Z,34.70
2018-07-28T13:21:42.964Z,34.30
2018-07-28T13:24:10.418Z,34.40
2018-07-28T13:26:37.859Z,34.60
2018-07-28T13:29:05.352Z,34.60
2018-07-28T13:31:32.785Z,34.50
2018-07-28T13:34:00.247Z,34.10
2018-07-28T13:36:27.696Z,33.80
2018-07-28T13:38:55.132Z,33.50
2018-07-28T13:41:22.575Z,32.90
2018-07-28T13:43:50.057Z,32.70
2018-07-28T13:46:17.508Z,32.60
2018-07-28T13:48:44.944Z,32.30
2018-07-28T13:51:12.407Z,32.20
2018-07-28T13:53:39.832Z,32.00
2018-07-28T13:56:07.304Z,31.90
2018-07-28T13:58:34.741Z,32.00
2018-07-28T14:01:02.206Z,32.10
2018-07-28T14:03:29.624Z,32.10
2018-07-28T14:05:57.071Z,32.00
2018-07-28T14:08:24.476Z,32.00
2018-07-28T14:10:51.905Z,31.80
2018-07-28T14:13:19.420Z,31.70
2018-07-28T14:18:14.532Z,31.70
2018-07-28T14:20:41.912Z,31.70
2018-07-28T14:23:09.386Z,31.70
2018-07-28T14:25:36.905Z,31.60
2018-07-28T14:28:04.382Z,31.50
2018-07-28T14:32:59.149Z,31.30
2018-07-28T14:35:26.641Z,31.30
2018-07-28T14:37:54.138Z,31.30
2018-07-28T14:40:21.613Z,31.30
2018-07-28T14:42:49.083Z,31.40
2018-07-28T14:45:16.536Z,31.40
2018-07-28T14:47:44.014Z,31.30
2018-07-28T14:50:11.954Z,31.20
2018-07-28T14:52:39.386Z,31.20
2018-07-28T14:55:06.868Z,31.20
2018-07-28T14:57:34.331Z,31.10
2018-07-28T15:00:01.756Z,31.00
2018-07-28T15:04:56.432Z,30.60
2018-07-28T15:07:23.949Z,30.50
2018-07-28T15:09:51.341Z,30.40
2018-07-28T15:12:18.936Z,30.40
2018-07-28T15:14:46.352Z,30.40
2018-07-28T15:22:08.773Z,30.40
2018-07-28T15:24:36.201Z,30.30
2018-07-28T15:27:03.789Z,30.20
2018-07-28T15:29:31.208Z,30.20
2018-07-28T15:31:58.656Z,30.30
2018-07-28T15:34:26.332Z,30.50
2018-07-28T15:39:21.249Z,30.70
2018-07-28T15:41:49.661Z,30.60
2018-07-28T15:44:17.343Z,30.50
2018-07-28T15:46:44.805Z,30.40
2018-07-28T15:49:12.341Z,30.20
2018-07-28T15:51:39.735Z,30.10
2018-07-28T15:56:34.643Z,30.20
2018-07-28T16:01:30.610Z,30.20
2018-07-28T16:03:58.713Z,30.10
2018-07-28T16:06:26.897Z,30.10
2018-07-28T16:08:55.032Z,30.00
2018-07-28T16:11:23.614Z,29.90
2018-07-28T16:13:51.741Z,29.80
2018-07-28T16:16:19.856Z,29.70
2018-07-28T16:18:47.984Z,29.70
2018-07-28T16:21:16.086Z,29.50
2018-07-28T16:23:44.206Z,29.40
2018-07-28T16:26:12.309Z,29.40
2018-07-28T16:28:40.616Z,29.30
2018-07-28T16:31:08.144Z,29.30
2018-07-28T16:33:35.825Z,29.30
2018-07-28T16:36:03.987Z,29.30
2018-07-28T16:38:32.496Z,29.20
2018-07-28T16:41:01.901Z,29.10
2018-07-28T16:43:30.016Z,29.00
2018-07-28T16:45:58.130Z,28.80
2018-07-28T16:48:26.969Z,28.70
2018-07-28T16:50:55.340Z,28.60
2018-07-28T16:53:23.488Z,28.60
2018-07-28T16:55:51.605Z,28.60
2018-07-28T16:58:20.337Z,28.60
2018-07-28T17:00:48.469Z,28.50
2018-07-28T17:05:44.629Z,28.50
2018-07-28T17:08:12.751Z,28.50
2018-07-28T17:10:40.909Z,28.50
2018-07-28T17:13:09.067Z,28.50
2018-07-28T17:15:37.366Z,28.60
2018-07-28T17:18:05.079Z,28.60
2018-07-28T17:20:32.506Z,28.60
2018-07-28T17:23:01.140Z,28.70
2018-07-28T17:25:28.564Z,28.60
2018-07-28T17:32:51.008Z,28.50
2018-07-28T17:35:18.547Z,28.50
2018-07-28T17:37:45.984Z,28.50
2018-07-28T17:40:13.433Z,28.50
2018-07-28T17:42:40.883Z,28.40
2018-07-28T17:45:08.530Z,28.40
2018-07-28T17:47:35.973Z,28.40
2018-07-28T17:52:30.908Z,28.50
2018-07-28T17:54:58.325Z,28.50
2018-07-28T17:57:25.778Z,28.60
2018-07-28T17:59:53.341Z,28.60
2018-07-28T18:02:20.745Z,28.60
2018-07-28T18:04:48.311Z,28.60
2018-07-28T18:07:16.437Z,28.60
2018-07-28T18:09:44.578Z,28.60
2018-07-28T18:12:12.934Z,28.70
2018-07-28T18:14:41.061Z,28.60
2018-07-28T18:19:37.203Z,28.70
2018-07-28T18:22:05.254Z,28.60
2018-07-28T18:27:01.370Z,28.60
2018-07-28T18:29:29.545Z,28.60
2018-07-28T18:31:57.641Z,28.70
2018-07-28T18:34:25.797Z,28.70
2018-07-28T18:36:53.981Z,28.70
2018-07-28T18:39:22.106Z,28.70
2018-07-28T18:41:50.229Z,28.70
2018-07-28T18:44:18.305Z,28.70
2018-07-28T18:46:46.415Z,28.60
2018-07-28T18:49:14.510Z,28.70
2018-07-28T18:51:42.615Z,28.60
2018-07-28T18:54:10.714Z,28.60
2018-07-28T18:56:38.852Z,28.50
2018-07-28T18:59:07.129Z,28.40
2018-07-28T19:01:35.335Z,28.40
2018-07-28T19:04:03.456Z,28.40
2018-07-28T19:06:31.633Z,28.30
2018-07-28T19:09:05.234Z,28.30
2018-07-28T19:11:33.341Z,28.30
2018-07-28T19:14:06.878Z,28.20
2018-07-28T19:16:34.953Z,28.10
2018-07-28T19:19:08.365Z,28.00
2018-07-28T19:21:36.473Z,28.00
2018-07-28T19:24:04.637Z,28.00
2018-07-28T19:26:32.853Z,28.00
2018-07-28T19:29:06.383Z,28.00
2018-07-28T19:31:34.478Z,28.00
2018-07-28T19:34:01.928Z,28.00
2018-07-28T19:36:35.502Z,28.00
2018-07-28T19:39:05.381Z,28.00
2018-07-28T19:43:44.510Z,28.00
2018-07-28T19:48:40.492Z,27.70
2018-07-28T19:51:08.654Z,27.70
2018-07-28T19:53:36.785Z,27.60
2018-07-28T19:56:05.041Z,27.60
2018-07-28T19:58:33.132Z,27.50
2018-07-28T20:01:01.299Z,27.50
2018-07-28T20:05:57.376Z,27.30
2018-07-28T20:08:25.497Z,27.20
2018-07-28T20:10:53.608Z,27.10
2018-07-28T20:13:21.949Z,27.10
2018-07-28T20:15:50.091Z,27.10
2018-07-28T20:18:18.207Z,27.00
2018-07-28T20:20:45.636Z,27.00
2018-07-28T20:23:13.049Z,26.90
2018-07-28T20:25:40.681Z,26.90
2018-07-28T20:28:08.226Z,26.80
2018-07-28T20:30:35.828Z,26.80
2018-07-28T20:33:03.365Z,26.70
2018-07-28T20:35:30.828Z,26.70
2018-07-28T20:37:58.261Z,26.70
2018-07-28T20:40:25.775Z,26.60
2018-07-28T20:42:53.181Z,26.60
2018-07-28T20:45:20.609Z,26.60
2018-07-28T20:47:48.018Z,26.60
2018-07-28T20:50:15.564Z,26.50
2018-07-28T20:52:43.050Z,26.50
2018-07-28T20:55:10.519Z,26.40
2018-07-28T20:57:37.984Z,26.40
2018-07-28T21:00:05.419Z,26.40
2018-07-28T21:02:32.836Z,26.30
2018-07-28T21:05:00.292Z,26.30
2018-07-28T21:07:27.714Z,26.30
2018-07-28T21:09:55.191Z,26.30
2018-07-28T21:12:22.595Z,26.30
2018-07-28T21:14:50.138Z,26.20
2018-07-28T21:17:17.524Z,26.20
2018-07-28T21:19:44.956Z,26.20
2018-07-28T21:22:12.368Z,26.10
2018-07-28T21:24:39.825Z,26.10
2018-07-28T21:27:07.264Z,26.00
2018-07-28T21:29:34.905Z,25.90
2018-07-28T21:32:02.508Z,25.90
2018-07-28T21:34:30.317Z,25.80
2018-07-28T21:36:57.716Z,25.90
2018-07-28T21:39:25.328Z,25.80
2018-07-28T21:41:52.730Z,25.80
2018-07-28T21:44:20.238Z,25.70
2018-07-28T21:46:47.653Z,25.70
2018-07-28T21:49:15.078Z,25.60
2018-07-28T21:51:42.512Z,25.50
2018-07-28T21:54:10.016Z,25.50
2018-07-28T21:56:37.481Z,25.40
2018-07-28T21:59:04.913Z,25.40
2018-07-28T22:01:32.464Z,25.30
2018-07-28T22:04:02.117Z,25.30
2018-07-28T22:06:30.133Z,25.30
2018-07-28T22:08:57.555Z,25.20
2018-07-28T22:11:25.018Z,25.20
2018-07-28T22:13:52.477Z,25.20
2018-07-28T22:16:19.922Z,25.10
2018-07-28T22:18:47.617Z,25.10
2018-07-28T22:21:15.120Z,25.10
2018-07-28T22:23:42.548Z,25.10
2018-07-28T22:26:09.980Z,25.10
2018-07-28T22:28:37.565Z,25.00
2018-07-28T22:31:04.989Z,25.00
2018-07-28T22:33:32.416Z,25.00
2018-07-28T22:35:59.865Z,25.00
2018-07-28T22:38:27.501Z,24.90
2018-07-28T22:40:54.972Z,24.90
2018-07-28T22:43:23.128Z,24.90
2018-07-28T22:45:50.561Z,24.70
2018-07-28T22:48:18.004Z,24.60
2018-07-28T22:50:45.480Z,24.50
2018-07-28T22:53:12.901Z,24.50
2018-07-28T22:55:40.366Z,24.50
2018-07-28T22:58:07.808Z,24.40
2018-07-28T23:00:35.324Z,24.40
2018-07-28T23:03:02.761Z,24.30
2018-07-28T23:05:30.241Z,24.30
2018-07-28T23:07:57.658Z,24.30
2018-07-28T23:10:25.114Z,24.30
2018-07-28T23:12:52.549Z,24.20
2018-07-28T23:15:19.999Z,24.10
2018-07-28T23:17:47.442Z,24.20
2018-07-28T23:20:14.903Z,24.10
2018-07-28T23:22:42.334Z,24.10
2018-07-28T23:25:09.796Z,24.10
2018-07-28T23:27:37.228Z,24.00
2018-07-28T23:30:06.373Z,24.00
2018-07-28T23:32:33.800Z,23.90
2018-07-28T23:35:01.329Z,23.80
2018-07-28T23:37:28.765Z,23.80
2018-07-28T23:39:56.228Z,23.70
2018-07-28T23:42:23.716Z,23.70
2018-07-28T23:47:18.628Z,23.60
2018-07-28T23:49:46.077Z,23.60
2018-07-28T23:52:13.796Z,23.50
2018-07-28T23:54:41.257Z,23.50
2018-07-28T23:57:08.705Z,23.50
2018-07-28T23:59:36.168Z,23.50
